EDHL/LBC METAR and TAF weather

Enter ICAO airport designator
Station Type Date Time Source
EDHL METAR 2024/06/15 22:20 UTC NOAA

EDHL 152220Z AUTO 15005KT 120V190 9999 // FEW080/// 13/09 Q1007


Station Type Date Time Source
EDHL Decoded METAR 2024/06/15 22:20 UTC NOAA

Luebeck-Blankensee, Germany (EDHL) 53-49N 010-42E 15M
Jun 15, 2024 - 06:20 PM EDT / 2024.06.15 2220 UTC
Wind: from the SSE (150 degrees) at 6 MPH (5 KT) (direction variable):0
Visibility: greater than 7 mile(s):0
Sky conditions: mostly clear
Temperature: 55 F (13 C)
Dew Point: 48 F (9 C)
Relative Humidity: 76%
Pressure (altimeter): 29.74 in. Hg (1007 hPa)
ob: EDHL 152220Z AUTO 15005KT 120V190 9999 // FEW080/// 13/09 Q1007
cycle: 22

Station Type Date Time Source
EDHL TAF 2010/02/22 14:20 UTC NOAA